createdAt,value
2022-08-26T00:02:12.575Z,19.50
2022-08-26T00:04:42.125Z,19.45
2022-08-26T00:07:10.707Z,19.44
2022-08-26T00:09:40.170Z,19.44
2022-08-26T00:12:12.385Z,19.43
2022-08-26T00:14:42.028Z,19.43
2022-08-26T00:17:10.557Z,19.41
2022-08-26T00:19:39.021Z,19.35
2022-08-26T00:22:08.468Z,19.41
2022-08-26T00:24:36.645Z,19.38
2022-08-26T00:27:06.348Z,19.35
2022-08-26T00:29:37.623Z,19.35
2022-08-26T00:32:06.644Z,19.31
2022-08-26T00:34:35.012Z,19.24
2022-08-26T00:37:03.063Z,19.27
2022-08-26T00:39:33.363Z,19.27
2022-08-26T00:42:01.372Z,19.27
2022-08-26T00:44:30.381Z,19.30
2022-08-26T00:47:03.692Z,19.23
2022-08-26T00:49:38.458Z,19.23
2022-08-26T00:52:09.924Z,19.22
2022-08-26T00:54:46.865Z,19.16
2022-08-26T00:57:18.605Z,19.18
2022-08-26T00:59:50.116Z,19.16
2022-08-26T01:02:21.129Z,19.16
2022-08-26T01:04:55.540Z,19.12
2022-08-26T01:07:27.590Z,19.05
2022-08-26T01:10:00.806Z,19.08
2022-08-26T01:12:32.861Z,19.09
2022-08-26T01:15:02.121Z,19.09
2022-08-26T01:17:30.179Z,19.12
2022-08-26T01:20:07.476Z,19.10
2022-08-26T01:22:47.159Z,19.12
2022-08-26T01:25:16.130Z,19.05
2022-08-26T01:27:44.888Z,19.07
2022-08-26T01:30:18.038Z,19.06
2022-08-26T01:32:46.779Z,19.07
2022-08-26T01:35:14.873Z,19.05
2022-08-26T01:37:45.318Z,19.02
2022-08-26T01:40:19.726Z,19.00
2022-08-26T01:42:49.140Z,18.98
2022-08-26T01:45:20.721Z,18.93
2022-08-26T01:47:56.634Z,18.86
2022-08-26T01:50:30.194Z,18.82
2022-08-26T01:53:03.249Z,18.85
2022-08-26T01:55:34.229Z,18.83
2022-08-26T01:58:06.147Z,18.83
2022-08-26T02:00:35.543Z,18.78
2022-08-26T02:03:18.670Z,18.78
2022-08-26T02:05:51.498Z,18.75
2022-08-26T02:08:25.393Z,18.72
2022-08-26T02:10:54.865Z,18.66
2022-08-26T02:13:25.578Z,18.63
2022-08-26T02:15:55.343Z,18.61
2022-08-26T02:18:24.871Z,18.62
2022-08-26T02:20:55.719Z,18.56
2022-08-26T02:23:25.876Z,18.52
2022-08-26T02:25:57.242Z,18.54
2022-08-26T02:28:28.944Z,18.52
2022-08-26T02:30:56.970Z,18.53
2022-08-26T02:33:25.025Z,18.52
2022-08-26T02:35:53.034Z,18.52
2022-08-26T02:38:21.177Z,18.50
2022-08-26T02:40:51.061Z,18.48
2022-08-26T02:43:19.128Z,18.45
2022-08-26T02:46:01.824Z,18.42
2022-08-26T02:48:31.381Z,18.28
2022-08-26T02:51:01.645Z,18.42
2022-08-26T02:53:31.801Z,18.43
2022-08-26T02:56:01.778Z,18.41
2022-08-26T02:58:31.183Z,18.39
2022-08-26T03:00:59.548Z,18.37
2022-08-26T03:03:30.146Z,18.40
2022-08-26T03:05:58.852Z,18.44
2022-08-26T03:08:26.920Z,18.43
2022-08-26T03:10:55.376Z,18.48
2022-08-26T03:13:25.374Z,18.46
2022-08-26T03:15:53.420Z,18.43
2022-08-26T03:18:21.533Z,18.38
2022-08-26T03:20:49.576Z,18.35
2022-08-26T03:23:18.594Z,18.32
2022-08-26T03:25:50.397Z,18.26
2022-08-26T03:28:19.278Z,18.20
2022-08-26T03:30:48.095Z,18.28
2022-08-26T03:33:17.310Z,18.26
2022-08-26T03:35:50.585Z,18.26
2022-08-26T03:38:20.402Z,18.25
2022-08-26T03:40:49.376Z,18.23
2022-08-26T03:43:19.633Z,18.20
2022-08-26T03:45:50.800Z,18.18
2022-08-26T03:48:19.343Z,18.16
2022-08-26T03:50:47.389Z,18.15
2022-08-26T03:53:16.833Z,18.12
2022-08-26T03:55:48.610Z,18.12
2022-08-26T03:58:20.499Z,18.13
2022-08-26T04:00:55.397Z,18.09
2022-08-26T04:03:38.257Z,18.09
2022-08-26T04:06:07.031Z,18.11
2022-08-26T04:08:35.073Z,18.07
2022-08-26T04:11:03.324Z,18.04
2022-08-26T04:13:32.310Z,18.00
2022-08-26T04:16:01.759Z,18.01
2022-08-26T04:18:33.198Z,17.99
2022-08-26T04:21:07.810Z,17.95
2022-08-26T04:23:47.511Z,17.86
2022-08-26T04:26:16.749Z,17.96
2022-08-26T04:28:44.792Z,17.95
2022-08-26T04:31:15.945Z,17.96
2022-08-26T04:33:44.661Z,17.99
2022-08-26T04:36:14.869Z,18.00
2022-08-26T04:38:43.089Z,17.96
2022-08-26T04:41:15.378Z,17.92
2022-08-26T04:43:46.415Z,17.99
2022-08-26T04:46:19.770Z,17.98
2022-08-26T04:48:47.905Z,18.06
2022-08-26T04:51:16.331Z,18.04
2022-08-26T04:53:44.515Z,18.05
2022-08-26T04:56:13.062Z,18.14
2022-08-26T04:58:41.296Z,18.13
2022-08-26T05:01:09.592Z,18.16
2022-08-26T05:03:39.969Z,18.20
2022-08-26T05:06:09.704Z,18.25
2022-08-26T05:08:37.755Z,18.29
2022-08-26T05:11:07.532Z,18.38
2022-08-26T05:13:39.085Z,18.42
2022-08-26T05:16:09.799Z,18.43
2022-08-26T05:18:43.728Z,18.44
2022-08-26T05:21:19.978Z,18.51
2022-08-26T05:23:49.064Z,18.50
2022-08-26T05:26:17.912Z,18.58
2022-08-26T05:28:51.547Z,18.64
2022-08-26T05:31:26.209Z,18.73
2022-08-26T05:33:57.543Z,18.73
2022-08-26T05:36:28.656Z,18.84
2022-08-26T05:38:57.801Z,18.92
2022-08-26T05:41:34.432Z,18.95
2022-08-26T05:44:06.877Z,18.99
2022-08-26T05:46:36.555Z,19.03
2022-08-26T05:49:06.687Z,19.13
2022-08-26T05:51:42.172Z,19.21
2022-08-26T05:54:10.724Z,19.30
2022-08-26T05:56:39.513Z,19.35
2022-08-26T05:59:14.518Z,19.34
2022-08-26T06:01:43.856Z,19.41
2022-08-26T06:04:13.621Z,19.40
2022-08-26T06:06:42.814Z,19.50
2022-08-26T06:09:11.694Z,19.58
2022-08-26T06:11:40.222Z,19.56
2022-08-26T06:14:09.187Z,19.65
2022-08-26T06:16:40.830Z,19.58
2022-08-26T06:19:12.088Z,19.78
2022-08-26T06:21:43.570Z,19.88
2022-08-26T06:24:31.828Z,19.92
2022-08-26T06:27:03.089Z,20.00
2022-08-26T06:29:34.146Z,20.17
2022-08-26T06:32:04.020Z,20.25
2022-08-26T06:34:32.718Z,20.44
2022-08-26T06:37:03.522Z,20.58
2022-08-26T06:39:32.313Z,20.57
2022-08-26T06:42:02.585Z,20.67
2022-08-26T06:44:31.033Z,20.67
2022-08-26T06:47:00.501Z,20.62
2022-08-26T06:49:28.521Z,20.57
2022-08-26T06:51:58.214Z,20.50
2022-08-26T06:54:30.227Z,20.42
2022-08-26T06:56:58.422Z,20.35
2022-08-26T06:59:27.001Z,20.36
2022-08-26T07:01:55.461Z,20.38
2022-08-26T07:04:24.600Z,20.48
2022-08-26T07:06:55.168Z,20.59
2022-08-26T07:09:26.793Z,20.74
2022-08-26T07:11:57.922Z,20.88
2022-08-26T07:14:26.650Z,21.05
2022-08-26T07:16:55.751Z,21.18
2022-08-26T07:19:31.210Z,21.21
2022-08-26T07:22:01.706Z,21.43
2022-08-26T07:24:31.139Z,21.56
2022-08-26T07:27:02.767Z,21.69
2022-08-26T07:29:31.731Z,21.81
2022-08-26T07:32:00.183Z,21.91
2022-08-26T07:34:28.579Z,22.02
2022-08-26T07:36:58.835Z,22.22
2022-08-26T07:39:27.884Z,22.47
2022-08-26T07:41:56.332Z,22.72
2022-08-26T07:44:27.842Z,22.92
2022-08-26T07:46:56.208Z,23.05
2022-08-26T07:49:26.708Z,23.13
2022-08-26T07:51:56.897Z,23.26
2022-08-26T07:54:26.894Z,23.32
2022-08-26T07:56:55.912Z,23.44
2022-08-26T07:59:24.882Z,23.47
2022-08-26T08:01:56.484Z,23.73
2022-08-26T08:04:26.653Z,23.79
2022-08-26T08:06:55.301Z,23.91
2022-08-26T08:09:23.977Z,24.00
2022-08-26T08:11:53.586Z,23.82
2022-08-26T08:14:22.312Z,23.85
2022-08-26T08:16:51.242Z,23.67
2022-08-26T08:19:24.434Z,23.71
2022-08-26T08:22:05.247Z,23.82
2022-08-26T08:24:46.381Z,23.89
2022-08-26T08:27:23.465Z,23.95
2022-08-26T08:29:54.141Z,23.99
2022-08-26T08:32:22.301Z,24.06
2022-08-26T08:34:51.759Z,24.20
2022-08-26T08:37:20.238Z,24.18
2022-08-26T08:39:49.109Z,24.11
2022-08-26T08:42:39.650Z,24.19
2022-08-26T08:45:11.845Z,24.18
2022-08-26T08:47:42.958Z,24.07
2022-08-26T08:50:22.238Z,24.07
2022-08-26T08:52:56.194Z,24.09
2022-08-26T08:55:28.702Z,24.19
2022-08-26T08:58:03.724Z,24.21
2022-08-26T09:00:40.171Z,24.15
2022-08-26T09:03:18.199Z,24.14
2022-08-26T09:05:51.464Z,24.13
2022-08-26T09:08:27.424Z,24.04
2022-08-26T09:10:59.202Z,24.00
2022-08-26T09:13:29.121Z,24.06
2022-08-26T09:16:08.319Z,24.01
2022-08-26T09:18:54.148Z,24.09
2022-08-26T09:21:25.394Z,24.07
2022-08-26T09:23:56.634Z,23.99
2022-08-26T09:26:30.552Z,23.86
2022-08-26T09:29:01.635Z,23.93
2022-08-26T09:31:32.399Z,23.96
2022-08-26T09:34:17.313Z,24.06
2022-08-26T09:36:48.983Z,24.06
2022-08-26T09:39:34.245Z,24.05
2022-08-26T09:42:09.595Z,24.06
2022-08-26T09:44:54.201Z,24.07
2022-08-26T09:47:26.991Z,24.06
2022-08-26T09:50:04.172Z,24.04
2022-08-26T09:52:34.414Z,24.20
2022-08-26T09:55:06.634Z,24.21
2022-08-26T09:57:37.047Z,24.18
2022-08-26T10:00:25.671Z,24.17
2022-08-26T10:02:57.922Z,24.16
2022-08-26T10:05:44.379Z,24.21
2022-08-26T10:08:26.677Z,24.18
2022-08-26T10:10:57.119Z,24.24
2022-08-26T10:13:32.701Z,24.28
2022-08-26T10:16:10.819Z,24.30
2022-08-26T10:18:43.530Z,24.43
2022-08-26T10:21:17.974Z,24.50
2022-08-26T10:23:51.695Z,24.70
2022-08-26T10:26:26.453Z,24.86
2022-08-26T10:29:01.423Z,25.01
2022-08-26T10:31:38.093Z,25.20
2022-08-26T10:34:06.563Z,25.26
2022-08-26T10:37:14.362Z,25.50
2022-08-26T10:39:49.028Z,25.74
2022-08-26T10:42:23.479Z,25.96
2022-08-26T10:44:54.845Z,26.20
2022-08-26T10:47:31.723Z,26.34
2022-08-26T10:50:03.395Z,26.61
2022-08-26T10:52:46.752Z,26.92
2022-08-26T10:55:25.413Z,27.33
2022-08-26T10:58:00.112Z,27.71
2022-08-26T11:00:57.828Z,27.72
2022-08-26T11:03:35.677Z,27.91
2022-08-26T11:06:21.718Z,28.10
2022-08-26T11:08:51.104Z,28.00
2022-08-26T11:11:49.289Z,28.12
2022-08-26T11:14:46.099Z,28.15
2022-08-26T11:17:56.420Z,27.86
2022-08-26T11:20:37.637Z,28.14
2022-08-26T11:23:40.354Z,27.66
2022-08-26T11:26:27.440Z,27.61
2022-08-26T11:29:12.054Z,27.83
2022-08-26T11:31:55.989Z,27.73
2022-08-26T11:34:57.996Z,27.88
2022-08-26T11:37:33.133Z,28.02
2022-08-26T11:40:04.069Z,27.95
2022-08-26T11:42:41.954Z,27.80
2022-08-26T11:45:25.652Z,27.81
2022-08-26T11:47:54.660Z,27.85
2022-08-26T11:50:26.097Z,27.92
2022-08-26T11:52:59.087Z,28.16
2022-08-26T11:55:27.144Z,27.65
2022-08-26T11:58:00.088Z,27.88
2022-08-26T12:00:36.039Z,27.37
2022-08-26T12:03:09.366Z,27.24
2022-08-26T12:05:43.314Z,27.52
2022-08-26T12:08:13.725Z,27.52
2022-08-26T12:10:41.889Z,27.38
2022-08-26T12:13:21.213Z,27.10
2022-08-26T12:15:56.337Z,27.13
2022-08-26T12:18:28.929Z,27.17
2022-08-26T12:21:00.977Z,27.25
2022-08-26T12:23:41.087Z,27.35
2022-08-26T12:26:19.186Z,27.62
2022-08-26T12:28:49.620Z,27.99
2022-08-26T12:31:26.728Z,28.26
2022-08-26T12:33:56.182Z,28.28
2022-08-26T12:36:28.703Z,28.31
2022-08-26T12:38:58.572Z,28.19
2022-08-26T12:41:41.561Z,27.99
2022-08-26T12:44:09.786Z,28.07
2022-08-26T12:46:39.213Z,27.85
2022-08-26T12:49:07.253Z,28.16
2022-08-26T12:51:41.951Z,28.79
2022-08-26T12:54:15.959Z,30.12
2022-08-26T12:56:44.283Z,31.02
2022-08-26T12:59:23.761Z,31.33
2022-08-26T13:01:54.514Z,31.75
2022-08-26T13:04:38.658Z,32.24
2022-08-26T13:07:21.934Z,30.71
2022-08-26T13:09:51.234Z,30.26
2022-08-26T13:12:31.225Z,29.52
2022-08-26T13:15:00.200Z,29.14
2022-08-26T13:17:31.024Z,28.64
2022-08-26T13:20:04.054Z,28.27
2022-08-26T13:22:32.796Z,27.98
2022-08-26T13:25:00.942Z,27.71
2022-08-26T13:27:29.219Z,27.40
2022-08-26T13:29:59.075Z,27.40
2022-08-26T13:32:27.825Z,27.29
2022-08-26T13:34:58.647Z,27.36
2022-08-26T13:37:34.888Z,27.16
2022-08-26T13:40:06.087Z,27.26
2022-08-26T13:42:34.413Z,27.06
2022-08-26T13:45:02.873Z,27.10
2022-08-26T13:47:31.418Z,26.94
2022-08-26T13:50:00.925Z,26.99
2022-08-26T13:52:30.339Z,27.07
2022-08-26T13:55:00.023Z,26.95
2022-08-26T13:57:28.649Z,26.95
2022-08-26T13:59:59.092Z,26.88
2022-08-26T14:02:28.053Z,26.62
2022-08-26T14:04:56.434Z,26.75
2022-08-26T14:07:27.106Z,26.85
2022-08-26T14:09:55.142Z,27.17
2022-08-26T14:12:23.364Z,27.47
2022-08-26T14:14:51.402Z,27.38
2022-08-26T14:17:22.515Z,27.61
2022-08-26T14:19:52.211Z,26.72
2022-08-26T14:22:23.069Z,25.90
2022-08-26T14:24:52.602Z,25.56
2022-08-26T14:27:20.646Z,25.20
2022-08-26T14:29:48.692Z,25.00
2022-08-26T14:32:23.103Z,25.08
2022-08-26T14:34:51.757Z,24.95
2022-08-26T14:37:19.869Z,25.50
2022-08-26T14:39:48.650Z,26.05
2022-08-26T14:42:23.204Z,26.57
2022-08-26T14:44:55.377Z,26.04
2022-08-26T14:47:23.633Z,26.22
2022-08-26T14:49:52.025Z,26.46
2022-08-26T14:52:20.120Z,26.69
2022-08-26T14:54:47.246Z,26.22
2022-08-26T14:57:24.396Z,25.91
2022-08-26T14:59:54.205Z,25.64
2022-08-26T15:02:33.125Z,25.79
2022-08-26T15:05:02.207Z,26.94
2022-08-26T15:07:30.272Z,28.72
2022-08-26T15:09:59.317Z,28.39
2022-08-26T15:12:28.778Z,27.92
2022-08-26T15:14:56.810Z,27.46
2022-08-26T15:17:24.826Z,27.36
2022-08-26T15:19:53.371Z,27.49
2022-08-26T15:22:21.383Z,27.76
2022-08-26T15:24:53.703Z,26.92
2022-08-26T15:27:22.025Z,26.33
2022-08-26T15:29:52.101Z,26.03
2022-08-26T15:32:20.294Z,25.74
2022-08-26T15:34:49.924Z,25.57
2022-08-26T15:37:17.985Z,25.23
2022-08-26T15:39:46.063Z,24.95
2022-08-26T15:42:14.124Z,24.71
2022-08-26T15:44:44.652Z,24.70
2022-08-26T15:47:14.360Z,24.86
2022-08-26T15:49:42.620Z,24.84
2022-08-26T15:52:10.676Z,25.08
2022-08-26T15:54:39.560Z,25.42
2022-08-26T15:57:11.494Z,27.18
2022-08-26T15:59:40.467Z,28.83
2022-08-26T16:02:09.138Z,29.36
2022-08-26T16:04:38.570Z,29.98
2022-08-26T16:07:06.776Z,30.02
2022-08-26T16:09:34.826Z,29.95
2022-08-26T16:12:03.047Z,30.19
2022-08-26T16:14:31.481Z,29.34
2022-08-26T16:16:59.538Z,28.65
2022-08-26T16:19:27.596Z,27.24
2022-08-26T16:21:57.016Z,26.60
2022-08-26T16:24:30.199Z,26.23
2022-08-26T16:26:58.666Z,25.56
2022-08-26T16:29:26.720Z,25.37
2022-08-26T16:31:54.870Z,25.14
2022-08-26T16:34:23.294Z,24.94
2022-08-26T16:36:52.276Z,24.71
2022-08-26T16:39:21.795Z,24.76
2022-08-26T16:41:50.247Z,24.81
2022-08-26T16:44:18.965Z,24.73
2022-08-26T16:46:47.034Z,24.58
2022-08-26T16:49:15.306Z,24.57
2022-08-26T16:51:43.424Z,24.57
2022-08-26T16:54:11.526Z,24.40
2022-08-26T16:56:40.935Z,24.00
2022-08-26T16:59:11.459Z,23.84
2022-08-26T17:01:39.739Z,23.39
2022-08-26T17:04:07.888Z,23.09
2022-08-26T17:06:35.951Z,22.69
2022-08-26T17:09:04.256Z,22.45
2022-08-26T17:11:32.378Z,22.13
2022-08-26T17:14:02.871Z,21.90
2022-08-26T17:16:31.016Z,21.68
2022-08-26T17:19:00.246Z,21.58
2022-08-26T17:21:29.436Z,21.37
2022-08-26T17:23:57.478Z,21.45
2022-08-26T17:26:26.057Z,21.34
2022-08-26T17:28:54.146Z,21.41
2022-08-26T17:31:24.586Z,21.47
2022-08-26T17:33:53.516Z,21.52
2022-08-26T17:36:22.945Z,21.44
2022-08-26T17:38:55.756Z,21.36
2022-08-26T17:41:23.865Z,21.15
2022-08-26T17:43:51.942Z,21.06
2022-08-26T17:46:20.043Z,20.90
2022-08-26T17:48:49.534Z,20.95
2022-08-26T17:51:19.490Z,20.94
2022-08-26T17:53:48.930Z,20.90
2022-08-26T17:56:24.068Z,20.81
2022-08-26T17:58:53.438Z,20.81
2022-08-26T18:01:21.904Z,20.80
2022-08-26T18:03:51.404Z,20.70
2022-08-26T18:06:20.988Z,20.79
2022-08-26T18:08:49.294Z,20.77
2022-08-26T18:11:22.861Z,20.76
2022-08-26T18:13:51.602Z,20.67
2022-08-26T18:16:20.269Z,20.60
2022-08-26T18:18:51.789Z,20.46
2022-08-26T18:21:22.959Z,20.45
2022-08-26T18:23:51.889Z,20.35
2022-08-26T18:26:25.242Z,20.34
2022-08-26T18:28:53.789Z,20.36
2022-08-26T18:31:22.586Z,20.17
2022-08-26T18:33:50.809Z,20.22
2022-08-26T18:36:24.962Z,20.23
2022-08-26T18:38:54.010Z,20.30
2022-08-26T18:41:25.094Z,20.30
2022-08-26T18:43:54.293Z,20.35
2022-08-26T18:46:26.112Z,20.30
2022-08-26T18:48:54.928Z,20.32
2022-08-26T18:51:26.627Z,20.30
2022-08-26T18:53:54.686Z,20.31
2022-08-26T18:56:23.202Z,20.30
2022-08-26T18:58:51.793Z,20.33
2022-08-26T19:01:25.463Z,20.28
2022-08-26T19:03:55.667Z,20.21
2022-08-26T19:06:26.392Z,20.26
2022-08-26T19:08:54.498Z,20.19
2022-08-26T19:11:31.289Z,20.10
2022-08-26T19:14:01.009Z,20.08
2022-08-26T19:16:30.060Z,20.02
2022-08-26T19:19:00.618Z,20.01
2022-08-26T19:21:30.841Z,19.93
2022-08-26T19:24:00.958Z,19.90
2022-08-26T19:26:31.025Z,19.88
2022-08-26T19:28:59.722Z,19.70
2022-08-26T19:31:28.579Z,19.80
2022-08-26T19:33:57.974Z,19.73
2022-08-26T19:36:26.783Z,19.72
2022-08-26T19:38:56.875Z,19.73
2022-08-26T19:41:36.937Z,19.73
2022-08-26T19:44:09.183Z,19.70
2022-08-26T19:49:12.008Z,19.52
2022-08-26T19:51:40.059Z,19.48
2022-08-26T19:54:09.504Z,19.44
2022-08-26T19:56:37.518Z,19.44
2022-08-26T19:59:05.498Z,19.44
2022-08-26T20:01:33.598Z,19.47
2022-08-26T20:04:01.667Z,19.52
2022-08-26T20:06:29.695Z,19.55
2022-08-26T20:08:57.773Z,19.61
2022-08-26T20:11:27.201Z,19.65
2022-08-26T20:13:55.275Z,19.63
2022-08-26T20:16:23.498Z,19.66
2022-08-26T20:19:09.111Z,19.72
2022-08-26T20:21:40.131Z,19.71
2022-08-26T20:24:10.513Z,19.72
2022-08-26T20:26:42.643Z,19.70
2022-08-26T20:29:12.630Z,19.66
2022-08-26T20:31:40.933Z,19.67
2022-08-26T20:34:09.276Z,19.65
2022-08-26T20:36:39.641Z,19.61
2022-08-26T20:39:08.901Z,19.52
2022-08-26T20:41:37.086Z,19.52
2022-08-26T20:44:06.824Z,19.49
2022-08-26T20:46:35.872Z,19.46
2022-08-26T20:49:05.806Z,19.38
2022-08-26T20:51:37.279Z,19.37
2022-08-26T20:54:06.320Z,19.34
2022-08-26T20:56:34.479Z,19.35
2022-08-26T20:59:03.187Z,19.36
2022-08-26T21:01:34.852Z,19.28
2022-08-26T21:04:05.131Z,19.27
2022-08-26T21:06:33.847Z,19.20
2022-08-26T21:09:02.504Z,19.20
2022-08-26T21:11:32.032Z,19.19
2022-08-26T21:14:15.873Z,19.17
2022-08-26T21:16:47.426Z,19.13
2022-08-26T21:19:19.622Z,19.10
2022-08-26T21:21:48.752Z,19.11
2022-08-26T21:24:17.189Z,19.04
2022-08-26T21:26:45.605Z,19.03
2022-08-26T21:29:13.837Z,18.99
2022-08-26T21:31:46.187Z,18.97
2022-08-26T21:34:18.579Z,18.94
2022-08-26T21:36:48.431Z,18.90
2022-08-26T21:39:17.537Z,18.88
2022-08-26T21:41:47.191Z,18.88
2022-08-26T21:44:16.974Z,18.87
2022-08-26T21:46:46.439Z,18.81
2022-08-26T21:49:17.577Z,18.83
2022-08-26T21:51:47.961Z,18.81
2022-08-26T21:54:16.440Z,18.77
2022-08-26T21:56:47.236Z,18.75
2022-08-26T21:59:17.133Z,18.68
2022-08-26T22:01:45.742Z,18.69
2022-08-26T22:04:14.378Z,18.70
2022-08-26T22:06:47.678Z,18.68
2022-08-26T22:09:18.168Z,18.66
2022-08-26T22:11:47.418Z,18.65
2022-08-26T22:14:18.220Z,18.64
2022-08-26T22:16:50.669Z,18.60
2022-08-26T22:19:19.918Z,18.56
2022-08-26T22:21:50.816Z,18.59
2022-08-26T22:24:21.059Z,18.60
2022-08-26T22:26:50.706Z,18.61
2022-08-26T22:29:20.103Z,18.62
2022-08-26T22:31:48.428Z,18.63
2022-08-26T22:34:19.493Z,18.61
2022-08-26T22:36:50.233Z,18.63
2022-08-26T22:39:21.261Z,18.59
2022-08-26T22:41:49.834Z,18.63
2022-08-26T22:44:20.405Z,18.63
2022-08-26T22:46:50.088Z,18.60
2022-08-26T22:49:19.553Z,18.62
2022-08-26T22:51:49.077Z,18.63
2022-08-26T22:54:17.883Z,18.63
2022-08-26T22:56:46.329Z,18.58
2022-08-26T22:59:16.120Z,18.66
2022-08-26T23:01:46.294Z,18.60
2022-08-26T23:04:14.682Z,18.49
2022-08-26T23:06:47.459Z,18.55
2022-08-26T23:09:18.790Z,18.55
2022-08-26T23:11:48.439Z,18.55
2022-08-26T23:14:18.541Z,18.55
2022-08-26T23:16:47.477Z,18.52
2022-08-26T23:19:18.030Z,18.51
2022-08-26T23:21:46.540Z,18.50
2022-08-26T23:24:15.754Z,18.52
2022-08-26T23:26:46.084Z,18.45
2022-08-26T23:29:15.577Z,18.46
2022-08-26T23:31:44.646Z,18.51
2022-08-26T23:34:42.923Z,18.51
2022-08-26T23:37:10.973Z,18.46
2022-08-26T23:39:38.986Z,18.45
2022-08-26T23:42:08.806Z,18.47
2022-08-26T23:44:37.061Z,18.44
2022-08-26T23:47:06.041Z,18.42
2022-08-26T23:49:34.953Z,18.38
2022-08-26T23:52:21.296Z,18.41
2022-08-26T23:54:49.404Z,18.38
2022-08-26T23:57:20.766Z,18.37
2022-08-26T23:59:49.525Z,18.30
